Tuesday, July 29, 2014
08:49 UTC
  |  Log In   |  Register Free
Airport Search:

Modesto City-Co-Harry Sham Fld Airport
(KMOD)

Modesto City-Co-Harry Sham Fld Airport Diagram
No Airport Diagram Available

FAA data valid effective July 24, 2014 until September 18, 2014 (unless otherwise noted).

 
 
 
 
 
 
 
 
 
 
 
 
 
 

Current Aviation Weather for Modesto City-Co-Harry Sham Fld Airport (KMOD)

The most recent METAR observation for KMOD was updated at: 1753 UTC
METAR Summary (Translated METAR)
KMOD
281753Z 28004KT 10SM CLR 30/09 A2999 RMK AO2 SLP156 T03000089 10300 20217 51010
KSCK
(21 nm NW from KMOD)
281755Z 00000KT 9SM CLR 28/11 A3000 RMK AO2 SLP158 T02830106 10283 20178 50010
TAF Summary (Translated TAF)
KSCK
(21 nm NW from KMOD)
290522Z 2906/3006 31007KT P6SM FEW150 BKN200 FM290800 VRB05KT P6SM FEW150 BKN200 FM292000 27007KT P6SM FEW250 FM300300 31009KT P6SM FEW250
KMCE
(29.3 nm SE from KMOD)
290520Z 2906/3006 VRB04KT P6SM BKN120 FM292300 33008KT P6SM FEW060 BKN120
  Airport Weather Conditions for KMOD

 Current Weather at MOD
78° F
Fair
North winds at 5.8 mph
MOD NOAA Radar

Pressure: 29.97 in
Humidity: 37%
Wind: North at 5.8 MPH (5 KT)
Dew Point: 50.0°F
Visibility: 10.00 mi


Airport Weather Forecast for KMOD

Translated METAR and TAF for KMOD
Translated METAR for KMOD (0842 UTC 29 July 2014)
found at http://aviationweather.gov/adds/metars/
 
METAR text: KMOD 290753Z AUTO 34005KT 10SM CLR 26/10 A2997 RMK AO2 SLP149 T02560100 403780217
Conditions at: KMOD (MODESTO , CA, US) observed 0753 UTC 29 July 2014
Temperature: 25.6°C (78°F)
Dewpoint: 10.0°C (50°F) [RH = 37%]
Pressure (altimeter): 29.97 inches Hg (1015.0 mb)
[Sea-level pressure: 1014.9 mb]
Winds: from the NNW (340 degrees) at 6 MPH (5 knots; 2.6 m/s)
Visibility: 10 or more miles (16+ km)
Ceiling: at least 12,000 feet AGL
Clouds: sky clear below 12,000 feet AGL
Weather: automated observation with no human augmentation;
there may or may not be significant weather present at this time
Translated TAF for KMOD

There is no translated TAF available for this airport

Find All Airport Services Find A Hotel Find A Rental Car Find A Golf Course Find A Restaurant $100 Hamburger



FBO's on the Field
FBO Company Facility Photos Services Transportation Aviation Fuel Prices: Prices include tax
Catering Weather Repair Courtesy Rental Type 100LL JetA JetA+ MOGAS 8087
 
Sky Trek Aviation

This FBO has not yet been rated
FS:Avfuel
Last Updated: Jul-17
Login to update fuel prices
SS:
Contact Sky Trek AviationMore FBO Information
 
Add another FBO Facility Photos Catering Weather Repair Courtesy Rental Type 100LL JetA JetA+ MOGAS 8087
Services Transportation Aviation Fuel Prices: Prices include tax


GlobalAir.com Airport Resource Center model-print
model-print
model-print
model-print